sensor_id;sensor_type;location;lat;lon;timestamp;pressure;altitude;pressure_sealevel;temperature;humidity
4570;BME280;2297;51.442;6.996;2023-09-19T00:01:32;99534.88;;;17.07;57.80
4570;BME280;2297;51.442;6.996;2023-09-19T00:04:00;99531.09;;;17.55;56.85
4570;BME280;2297;51.442;6.996;2023-09-19T00:06:28;99540.41;;;17.19;57.49
4570;BME280;2297;51.442;6.996;2023-09-19T00:08:57;99545.81;;;16.72;58.40
4570;BME280;2297;51.442;6.996;2023-09-19T00:11:25;99548.81;;;17.27;57.32
4570;BME280;2297;51.442;6.996;2023-09-19T00:13:52;99549.84;;;17.24;57.23
4570;BME280;2297;51.442;6.996;2023-09-19T00:16:20;99546.19;;;16.96;57.54
4570;BME280;2297;51.442;6.996;2023-09-19T00:18:46;99542.53;;;17.42;56.69
4570;BME280;2297;51.442;6.996;2023-09-19T00:21:15;99549.03;;;17.38;57.11
4570;BME280;2297;51.442;6.996;2023-09-19T00:23:42;99562.38;;;17.38;57.20
4570;BME280;2297;51.442;6.996;2023-09-19T00:26:08;99554.91;;;17.43;57.15
4570;BME280;2297;51.442;6.996;2023-09-19T00:28:35;99558.25;;;17.33;57.37
4570;BME280;2297;51.442;6.996;2023-09-19T00:31:02;99559.88;;;17.35;57.28
4570;BME280;2297;51.442;6.996;2023-09-19T00:33:31;99554.22;;;17.11;57.95
4570;BME280;2297;51.442;6.996;2023-09-19T00:35:58;99564.22;;;17.22;57.69
4570;BME280;2297;51.442;6.996;2023-09-19T00:38:26;99554.34;;;17.24;57.48
4570;BME280;2297;51.442;6.996;2023-09-19T00:40:54;99560.72;;;16.44;59.29
4570;BME280;2297;51.442;6.996;2023-09-19T00:43:23;99558.56;;;16.98;58.03
4570;BME280;2297;51.442;6.996;2023-09-19T00:45:51;99563.94;;;16.82;58.07
4570;BME280;2297;51.442;6.996;2023-09-19T00:48:19;99564.97;;;17.09;57.32
4570;BME280;2297;51.442;6.996;2023-09-19T00:50:48;99561.38;;;17.25;56.60
4570;BME280;2297;51.442;6.996;2023-09-19T00:53:19;99565.66;;;17.27;56.55
4570;BME280;2297;51.442;6.996;2023-09-19T00:55:49;99570.03;;;17.14;56.74
4570;BME280;2297;51.442;6.996;2023-09-19T00:58:17;99574.31;;;17.17;56.44
4570;BME280;2297;51.442;6.996;2023-09-19T01:00:44;99584.63;;;17.23;56.60
4570;BME280;2297;51.442;6.996;2023-09-19T01:03:11;99573.75;;;17.26;56.16
4570;BME280;2297;51.442;6.996;2023-09-19T01:05:38;99581.28;;;16.89;56.55
4570;BME280;2297;51.442;6.996;2023-09-19T01:08:05;99579.06;;;17.11;56.41
4570;BME280;2297;51.442;6.996;2023-09-19T01:10:33;99585.78;;;17.19;56.16
4570;BME280;2297;51.442;6.996;2023-09-19T01:13:05;99590.66;;;16.96;57.02
4570;BME280;2297;51.442;6.996;2023-09-19T01:15:43;99590.09;;;16.91;57.02
4570;BME280;2297;51.442;6.996;2023-09-19T01:18:31;99593.38;;;16.64;57.75
4570;BME280;2297;51.442;6.996;2023-09-19T01:21:08;99596.97;;;16.63;57.97
4570;BME280;2297;51.442;6.996;2023-09-19T01:24:04;99591.88;;;16.74;57.46
4570;BME280;2297;51.442;6.996;2023-09-19T01:26:56;99590.28;;;16.56;58.09
4570;BME280;2297;51.442;6.996;2023-09-19T01:29:38;99605.19;;;16.74;57.60
4570;BME280;2297;51.442;6.996;2023-09-19T01:32:08;99606.78;;;16.46;57.87
4570;BME280;2297;51.442;6.996;2023-09-19T01:34:46;99604.38;;;16.58;57.79
4570;BME280;2297;51.442;6.996;2023-09-19T01:37:14;99605.03;;;16.77;57.00
4570;BME280;2297;51.442;6.996;2023-09-19T01:39:44;99603.66;;;16.70;57.39
4570;BME280;2297;51.442;6.996;2023-09-19T01:42:20;99611.84;;;16.67;57.19
4570;BME280;2297;51.442;6.996;2023-09-19T01:44:54;99618.72;;;16.71;56.83
4570;BME280;2297;51.442;6.996;2023-09-19T01:47:31;99623.13;;;16.72;56.73
4570;BME280;2297;51.442;6.996;2023-09-19T01:50:03;99626.53;;;16.74;56.62
4570;BME280;2297;51.442;6.996;2023-09-19T01:52:38;99622.63;;;16.50;57.27
4570;BME280;2297;51.442;6.996;2023-09-19T01:55:09;99618.28;;;16.79;56.38
4570;BME280;2297;51.442;6.996;2023-09-19T01:57:42;99623.13;;;16.56;57.12
4570;BME280;2297;51.442;6.996;2023-09-19T02:00:14;99618.31;;;16.63;56.72
4570;BME280;2297;51.442;6.996;2023-09-19T02:02:46;99631.53;;;16.80;56.20
4570;BME280;2297;51.442;6.996;2023-09-19T02:05:22;99625.44;;;16.46;56.59
4570;BME280;2297;51.442;6.996;2023-09-19T02:07:48;99621.31;;;16.57;56.59
4570;BME280;2297;51.442;6.996;2023-09-19T02:10:15;99628.09;;;16.46;56.71
4570;BME280;2297;51.442;6.996;2023-09-19T02:12:42;99634.41;;;15.96;57.42
4570;BME280;2297;51.442;6.996;2023-09-19T02:15:09;99631.13;;;16.08;58.11
4570;BME280;2297;51.442;6.996;2023-09-19T02:17:36;99640.59;;;16.46;57.14
4570;BME280;2297;51.442;6.996;2023-09-19T02:20:05;99634.22;;;16.33;56.96
4570;BME280;2297;51.442;6.996;2023-09-19T02:22:36;99638.00;;;16.12;57.56
4570;BME280;2297;51.442;6.996;2023-09-19T02:25:04;99646.75;;;15.81;58.31
4570;BME280;2297;51.442;6.996;2023-09-19T02:27:32;99647.88;;;16.26;57.35
4570;BME280;2297;51.442;6.996;2023-09-19T02:29:59;99649.09;;;16.21;57.43
4570;BME280;2297;51.442;6.996;2023-09-19T02:32:27;99652.41;;;15.91;58.29
4570;BME280;2297;51.442;6.996;2023-09-19T02:34:55;99661.56;;;15.69;58.50
4570;BME280;2297;51.442;6.996;2023-09-19T02:37:24;99654.72;;;16.15;57.72
4570;BME280;2297;51.442;6.996;2023-09-19T02:39:51;99661.25;;;16.09;57.33
4570;BME280;2297;51.442;6.996;2023-09-19T02:42:18;99654.59;;;16.18;57.09
4570;BME280;2297;51.442;6.996;2023-09-19T02:44:44;99660.25;;;16.27;56.82
4570;BME280;2297;51.442;6.996;2023-09-19T02:47:12;99657.25;;;16.18;56.89
4570;BME280;2297;51.442;6.996;2023-09-19T02:49:40;99657.78;;;16.40;56.22
4570;BME280;2297;51.442;6.996;2023-09-19T02:52:07;99669.75;;;16.00;56.99
4570;BME280;2297;51.442;6.996;2023-09-19T02:54:37;99664.47;;;15.98;57.12
4570;BME280;2297;51.442;6.996;2023-09-19T02:57:04;99670.47;;;15.68;56.58
4570;BME280;2297;51.442;6.996;2023-09-19T02:59:32;99670.44;;;16.03;56.38
4570;BME280;2297;51.442;6.996;2023-09-19T03:01:59;99684.31;;;16.26;55.18
4570;BME280;2297;51.442;6.996;2023-09-19T03:04:28;99675.72;;;16.37;54.76
4570;BME280;2297;51.442;6.996;2023-09-19T03:06:56;99689.56;;;15.94;55.24
4570;BME280;2297;51.442;6.996;2023-09-19T03:09:25;99683.59;;;16.06;55.57
4570;BME280;2297;51.442;6.996;2023-09-19T03:11:53;99685.53;;;16.36;54.36
4570;BME280;2297;51.442;6.996;2023-09-19T03:14:20;99693.44;;;16.38;53.89
4570;BME280;2297;51.442;6.996;2023-09-19T03:16:48;99675.66;;;16.38;53.53
4570;BME280;2297;51.442;6.996;2023-09-19T03:19:15;99680.00;;;16.07;53.25
4570;BME280;2297;51.442;6.996;2023-09-19T03:21:42;99692.03;;;15.97;53.88
4570;BME280;2297;51.442;6.996;2023-09-19T03:24:09;99685.31;;;16.07;53.48
4570;BME280;2297;51.442;6.996;2023-09-19T03:26:36;99686.97;;;16.26;53.30
4570;BME280;2297;51.442;6.996;2023-09-19T03:29:05;99679.00;;;16.26;52.95
4570;BME280;2297;51.442;6.996;2023-09-19T03:31:33;99679.06;;;16.08;53.44
4570;BME280;2297;51.442;6.996;2023-09-19T03:34:02;99687.25;;;16.37;52.80
4570;BME280;2297;51.442;6.996;2023-09-19T03:36:29;99689.22;;;16.18;53.21
4570;BME280;2297;51.442;6.996;2023-09-19T03:38:56;99690.25;;;16.15;53.36
4570;BME280;2297;51.442;6.996;2023-09-19T03:41:22;99689.13;;;16.19;52.92
4570;BME280;2297;51.442;6.996;2023-09-19T03:43:49;99696.50;;;16.14;53.00
4570;BME280;2297;51.442;6.996;2023-09-19T03:46:17;99689.56;;;15.94;53.72
4570;BME280;2297;51.442;6.996;2023-09-19T03:48:44;99680.88;;;16.24;52.81
4570;BME280;2297;51.442;6.996;2023-09-19T03:51:10;99691.03;;;16.33;52.69
4570;BME280;2297;51.442;6.996;2023-09-19T03:53:37;99686.38;;;16.21;52.35
4570;BME280;2297;51.442;6.996;2023-09-19T03:56:04;99693.94;;;16.12;52.88
4570;BME280;2297;51.442;6.996;2023-09-19T03:58:30;99690.25;;;16.15;52.80
4570;BME280;2297;51.442;6.996;2023-09-19T04:04:23;99680.88;;;16.24;52.53
4570;BME280;2297;51.442;6.996;2023-09-19T04:06:50;99684.75;;;16.34;52.39
4570;BME280;2297;51.442;6.996;2023-09-19T04:09:17;99685.84;;;16.14;52.71
4570;BME280;2297;51.442;6.996;2023-09-19T04:11:44;99678.50;;;16.35;52.17
4570;BME280;2297;51.442;6.996;2023-09-19T04:14:10;99684.66;;;16.20;52.66
4570;BME280;2297;51.442;6.996;2023-09-19T04:16:37;99689.47;;;16.29;52.44
4570;BME280;2297;51.442;6.996;2023-09-19T04:19:04;99683.44;;;16.25;52.38
4570;BME280;2297;51.442;6.996;2023-09-19T04:21:32;99688.06;;;16.06;53.14
4570;BME280;2297;51.442;6.996;2023-09-19T04:23:59;99682.69;;;16.23;52.78
4570;BME280;2297;51.442;6.996;2023-09-19T04:26:26;99686.91;;;16.27;52.59
4570;BME280;2297;51.442;6.996;2023-09-19T04:28:52;99694.16;;;16.08;53.28
4570;BME280;2297;51.442;6.996;2023-09-19T04:31:19;99693.44;;;16.22;53.10
4570;BME280;2297;51.442;6.996;2023-09-19T04:33:47;99696.00;;;16.23;53.01
4570;BME280;2297;51.442;6.996;2023-09-19T04:36:13;99688.94;;;16.22;52.87
4570;BME280;2297;51.442;6.996;2023-09-19T04:38:42;99694.56;;;16.00;54.20
4570;BME280;2297;51.442;6.996;2023-09-19T04:41:08;99686.34;;;16.05;53.97
4570;BME280;2297;51.442;6.996;2023-09-19T04:43:35;99689.34;;;16.15;53.75
4570;BME280;2297;51.442;6.996;2023-09-19T04:46:01;99690.31;;;16.13;53.69
4570;BME280;2297;51.442;6.996;2023-09-19T04:48:28;99693.94;;;16.12;53.79
4570;BME280;2297;51.442;6.996;2023-09-19T04:50:55;99691.28;;;15.95;54.40
4570;BME280;2297;51.442;6.996;2023-09-19T04:53:22;99685.16;;;16.26;53.48
4570;BME280;2297;51.442;6.996;2023-09-19T04:55:53;99710.44;;;16.19;53.89
4570;BME280;2297;51.442;6.996;2023-09-19T04:58:20;99701.47;;;16.04;54.08
4570;BME280;2297;51.442;6.996;2023-09-19T05:00:48;99708.00;;;16.15;54.06
4570;BME280;2297;51.442;6.996;2023-09-19T05:03:16;99704.13;;;15.87;54.74
4570;BME280;2297;51.442;6.996;2023-09-19T05:05:45;99701.47;;;15.69;55.20
4570;BME280;2297;51.442;6.996;2023-09-19T05:08:11;99712.13;;;15.69;55.63
4570;BME280;2297;51.442;6.996;2023-09-19T05:10:40;99712.28;;;15.84;55.05
4570;BME280;2297;51.442;6.996;2023-09-19T05:13:08;99728.72;;;15.74;55.50
4570;BME280;2297;51.442;6.996;2023-09-19T05:15:34;99727.00;;;15.56;55.76
4570;BME280;2297;51.442;6.996;2023-09-19T05:18:02;99732.63;;;15.85;55.35
4570;BME280;2297;51.442;6.996;2023-09-19T05:20:29;99741.25;;;15.90;54.98
4570;BME280;2297;51.442;6.996;2023-09-19T05:23:01;99745.75;;;15.35;56.51
4570;BME280;2297;51.442;6.996;2023-09-19T05:25:28;99758.25;;;15.87;55.09
4570;BME280;2297;51.442;6.996;2023-09-19T05:27:57;99761.75;;;15.70;55.24
4570;BME280;2297;51.442;6.996;2023-09-19T05:30:25;99762.78;;;15.68;55.36
4570;BME280;2297;51.442;6.996;2023-09-19T05:32:54;99767.47;;;15.80;54.87
4570;BME280;2297;51.442;6.996;2023-09-19T05:35:21;99753.41;;;15.78;55.02
4570;BME280;2297;51.442;6.996;2023-09-19T05:37:48;99760.19;;;15.84;55.01
4570;BME280;2297;51.442;6.996;2023-09-19T05:40:16;99767.88;;;15.90;54.61
4570;BME280;2297;51.442;6.996;2023-09-19T05:42:43;99761.28;;;16.15;54.02
4570;BME280;2297;51.442;6.996;2023-09-19T05:45:10;99781.72;;;15.96;54.27
4570;BME280;2297;51.442;6.996;2023-09-19T05:47:39;99781.81;;;15.95;54.34
4570;BME280;2297;51.442;6.996;2023-09-19T05:50:11;99777.16;;;15.99;54.49
4570;BME280;2297;51.442;6.996;2023-09-19T05:52:38;99787.13;;;15.95;54.23
4570;BME280;2297;51.442;6.996;2023-09-19T05:55:06;99789.94;;;15.92;54.61
4570;BME280;2297;51.442;6.996;2023-09-19T05:57:33;99797.00;;;16.10;53.90
4570;BME280;2297;51.442;6.996;2023-09-19T06:00:00;99792.94;;;16.21;53.57
4570;BME280;2297;51.442;6.996;2023-09-19T06:02:27;99790.09;;;16.24;53.11
4570;BME280;2297;51.442;6.996;2023-09-19T06:04:56;99804.19;;;16.26;53.17
4570;BME280;2297;51.442;6.996;2023-09-19T06:07:23;99794.31;;;15.93;53.82
4570;BME280;2297;51.442;6.996;2023-09-19T06:09:53;99801.63;;;16.07;53.26
4570;BME280;2297;51.442;6.996;2023-09-19T06:12:19;99791.06;;;16.23;53.35
4570;BME280;2297;51.442;6.996;2023-09-19T06:14:46;99791.59;;;15.59;54.66
4570;BME280;2297;51.442;6.996;2023-09-19T06:17:14;99794.13;;;16.15;53.52
4570;BME280;2297;51.442;6.996;2023-09-19T06:19:42;99794.31;;;15.93;53.70
4570;BME280;2297;51.442;6.996;2023-09-19T06:22:16;99796.81;;;15.96;53.77
4570;BME280;2297;51.442;6.996;2023-09-19T06:24:44;99790.66;;;16.13;53.38
4570;BME280;2297;51.442;6.996;2023-09-19T06:27:12;99789.69;;;16.32;52.89
4570;BME280;2297;51.442;6.996;2023-09-19T06:29:38;99791.06;;;16.05;53.59
4570;BME280;2297;51.442;6.996;2023-09-19T06:32:07;99796.88;;;16.13;53.00
4570;BME280;2297;51.442;6.996;2023-09-19T06:34:35;99796.50;;;16.37;52.59
4570;BME280;2297;51.442;6.996;2023-09-19T06:37:03;99796.38;;;16.23;52.56
4570;BME280;2297;51.442;6.996;2023-09-19T06:39:32;99786.06;;;15.99;53.22
4570;BME280;2297;51.442;6.996;2023-09-19T06:41:59;99778.84;;;16.35;52.41
4570;BME280;2297;51.442;6.996;2023-09-19T06:44:27;99782.75;;;16.11;53.30
4570;BME280;2297;51.442;6.996;2023-09-19T06:46:55;99783.56;;;16.63;51.88
4570;BME280;2297;51.442;6.996;2023-09-19T06:49:21;99795.97;;;16.64;51.55
4570;BME280;2297;51.442;6.996;2023-09-19T06:51:48;99793.31;;;16.46;51.98
4570;BME280;2297;51.442;6.996;2023-09-19T06:54:14;99794.56;;;16.57;52.04
4570;BME280;2297;51.442;6.996;2023-09-19T06:56:44;99805.03;;;16.60;52.12
4570;BME280;2297;51.442;6.996;2023-09-19T06:59:20;99806.94;;;16.58;51.73
4570;BME280;2297;51.442;6.996;2023-09-19T07:01:47;99790.84;;;16.43;52.73
4570;BME280;2297;51.442;6.996;2023-09-19T07:04:16;99802.72;;;16.54;52.46
4570;BME280;2297;51.442;6.996;2023-09-19T07:06:44;99799.78;;;16.42;52.81
4570;BME280;2297;51.442;6.996;2023-09-19T07:09:15;99804.78;;;16.15;53.37
4570;BME280;2297;51.442;6.996;2023-09-19T07:11:43;99799.88;;;16.57;52.78
4570;BME280;2297;51.442;6.996;2023-09-19T07:14:10;99807.28;;;16.52;53.24
4570;BME280;2297;51.442;6.996;2023-09-19T07:16:37;99826.63;;;16.89;52.06
4570;BME280;2297;51.442;6.996;2023-09-19T07:19:04;99819.56;;;16.88;52.21
4570;BME280;2297;51.442;6.996;2023-09-19T07:21:31;99815.25;;;16.52;52.96
4570;BME280;2297;51.442;6.996;2023-09-19T07:24:00;99810.25;;;16.79;52.31
4570;BME280;2297;51.442;6.996;2023-09-19T07:26:27;99814.22;;;16.88;52.49
4570;BME280;2297;51.442;6.996;2023-09-19T07:28:55;99826.72;;;16.54;53.13
4570;BME280;2297;51.442;6.996;2023-09-19T07:31:22;99824.84;;;16.72;52.80
4570;BME280;2297;51.442;6.996;2023-09-19T07:33:50;99818.34;;;16.77;52.57
4570;BME280;2297;51.442;6.996;2023-09-19T07:36:17;99815.56;;;16.63;52.91
4570;BME280;2297;51.442;6.996;2023-09-19T07:38:44;99812.03;;;16.78;52.61
4570;BME280;2297;51.442;6.996;2023-09-19T07:41:10;99823.25;;;16.52;53.08
4570;BME280;2297;51.442;6.996;2023-09-19T07:43:37;99824.53;;;16.78;52.72
4570;BME280;2297;51.442;6.996;2023-09-19T07:46:06;99825.88;;;16.69;52.86
4570;BME280;2297;51.442;6.996;2023-09-19T07:48:34;99818.03;;;16.84;52.60
4570;BME280;2297;51.442;6.996;2023-09-19T07:51:04;99826.72;;;16.54;53.56
4570;BME280;2297;51.442;6.996;2023-09-19T07:53:31;99819.53;;;16.38;54.02
4570;BME280;2297;51.442;6.996;2023-09-19T07:56:03;99830.13;;;16.73;53.10
4570;BME280;2297;51.442;6.996;2023-09-19T07:58:30;99824.94;;;16.37;53.78
4570;BME280;2297;51.442;6.996;2023-09-19T08:00:56;99831.75;;;16.76;52.81
4570;BME280;2297;51.442;6.996;2023-09-19T08:03:29;99828.56;;;17.19;51.97
4570;BME280;2297;51.442;6.996;2023-09-19T08:05:56;99836.72;;;17.16;52.08
4570;BME280;2297;51.442;6.996;2023-09-19T08:08:24;99848.13;;;16.86;52.96
4570;BME280;2297;51.442;6.996;2023-09-19T08:10:52;99832.41;;;16.97;52.60
4570;BME280;2297;51.442;6.996;2023-09-19T08:13:21;99854.53;;;16.99;52.54
4570;BME280;2297;51.442;6.996;2023-09-19T08:15:47;99833.00;;;17.02;52.53
4570;BME280;2297;51.442;6.996;2023-09-19T08:18:14;99852.72;;;16.66;53.53
4570;BME280;2297;51.442;6.996;2023-09-19T08:20:42;99849.28;;;16.98;52.72
4570;BME280;2297;51.442;6.996;2023-09-19T08:23:11;99841.22;;;16.82;53.07
4570;BME280;2297;51.442;6.996;2023-09-19T08:25:38;99838.00;;;17.08;52.53
4570;BME280;2297;51.442;6.996;2023-09-19T08:28:08;99842.03;;;17.00;52.58
4570;BME280;2297;51.442;6.996;2023-09-19T08:30:37;99843.75;;;16.85;53.04
4570;BME280;2297;51.442;6.996;2023-09-19T08:33:05;99840.16;;;17.18;52.48
4570;BME280;2297;51.442;6.996;2023-09-19T08:35:33;99843.63;;;17.20;51.96
4570;BME280;2297;51.442;6.996;2023-09-19T08:38:02;99861.25;;;17.22;51.89
4570;BME280;2297;51.442;6.996;2023-09-19T08:40:29;99855.03;;;17.38;51.33
4570;BME280;2297;51.442;6.996;2023-09-19T08:42:59;99852.28;;;17.39;51.63
4570;BME280;2297;51.442;6.996;2023-09-19T08:45:26;99848.75;;;17.39;51.50
4570;BME280;2297;51.442;6.996;2023-09-19T08:48:12;99849.38;;;17.44;51.02
4570;BME280;2297;51.442;6.996;2023-09-19T08:50:46;99861.25;;;17.38;51.44
4570;BME280;2297;51.442;6.996;2023-09-19T08:53:26;99884.75;;;17.48;51.17
4570;BME280;2297;51.442;6.996;2023-09-19T08:55:54;99849.03;;;17.66;50.17
4570;BME280;2297;51.442;6.996;2023-09-19T08:58:26;99856.50;;;17.75;49.36
4570;BME280;2297;51.442;6.996;2023-09-19T09:00:56;99869.16;;;17.56;50.34
4570;BME280;2297;51.442;6.996;2023-09-19T09:03:26;99853.31;;;17.53;50.10
4570;BME280;2297;51.442;6.996;2023-09-19T09:05:53;99871.63;;;17.91;49.54
4570;BME280;2297;51.442;6.996;2023-09-19T09:08:22;99860.88;;;17.44;50.35
4570;BME280;2297;51.442;6.996;2023-09-19T09:10:49;99865.03;;;17.50;49.65
4570;BME280;2297;51.442;6.996;2023-09-19T09:13:16;99865.38;;;17.60;49.52
4570;BME280;2297;51.442;6.996;2023-09-19T09:15:44;99857.75;;;17.84;49.05
4570;BME280;2297;51.442;6.996;2023-09-19T09:18:11;99860.72;;;17.79;49.03
4570;BME280;2297;51.442;6.996;2023-09-19T09:20:38;99846.78;;;17.74;49.14
4570;BME280;2297;51.442;6.996;2023-09-19T09:23:05;99850.59;;;18.01;48.58
4570;BME280;2297;51.442;6.996;2023-09-19T09:25:54;99848.94;;;17.68;49.25
4570;BME280;2297;51.442;6.996;2023-09-19T09:28:23;99855.78;;;18.18;48.04
4570;BME280;2297;51.442;6.996;2023-09-19T09:30:50;99847.44;;;17.46;49.11
4570;BME280;2297;51.442;6.996;2023-09-19T09:33:17;99851.19;;;17.90;48.29
4570;BME280;2297;51.442;6.996;2023-09-19T09:35:50;99847.50;;;18.37;47.20
4570;BME280;2297;51.442;6.996;2023-09-19T09:38:19;99855.00;;;18.16;47.36
4570;BME280;2297;51.442;6.996;2023-09-19T09:40:47;99852.66;;;18.26;46.57
4570;BME280;2297;51.442;6.996;2023-09-19T09:43:32;99842.88;;;18.55;45.53
4570;BME280;2297;51.442;6.996;2023-09-19T09:46:14;99852.34;;;18.31;45.77
4570;BME280;2297;51.442;6.996;2023-09-19T09:49:02;99849.78;;;18.29;46.19
4570;BME280;2297;51.442;6.996;2023-09-19T09:51:46;99838.69;;;18.21;46.37
4570;BME280;2297;51.442;6.996;2023-09-19T09:54:25;99850.59;;;18.45;46.02
4570;BME280;2297;51.442;6.996;2023-09-19T09:57:00;99859.69;;;18.27;46.13
4570;BME280;2297;51.442;6.996;2023-09-19T09:59:47;99858.16;;;18.23;46.35
4570;BME280;2297;51.442;6.996;2023-09-19T10:02:15;99849.28;;;18.53;45.90
4570;BME280;2297;51.442;6.996;2023-09-19T10:04:48;99840.84;;;18.73;46.23
4570;BME280;2297;51.442;6.996;2023-09-19T10:07:40;99852.69;;;18.84;45.54
4570;BME280;2297;51.442;6.996;2023-09-19T10:10:13;99846.03;;;18.62;45.44
4570;BME280;2297;51.442;6.996;2023-09-19T10:12:44;99845.06;;;18.49;45.81
4570;BME280;2297;51.442;6.996;2023-09-19T10:15:16;99834.88;;;18.25;46.29
4570;BME280;2297;51.442;6.996;2023-09-19T10:17:47;99850.59;;;18.89;45.37
4570;BME280;2297;51.442;6.996;2023-09-19T10:20:14;99843.34;;;18.91;45.02
4570;BME280;2297;51.442;6.996;2023-09-19T10:22:59;99860.00;;;18.37;45.60
4570;BME280;2297;51.442;6.996;2023-09-19T10:25:27;99835.13;;;18.51;45.56
4570;BME280;2297;51.442;6.996;2023-09-19T10:27:56;99824.44;;;18.79;44.51
4570;BME280;2297;51.442;6.996;2023-09-19T10:30:27;99816.47;;;19.07;44.14
4570;BME280;2297;51.442;6.996;2023-09-19T10:33:00;99822.31;;;18.85;43.74
4570;BME280;2297;51.442;6.996;2023-09-19T10:35:27;99818.44;;;19.18;43.52
4570;BME280;2297;51.442;6.996;2023-09-19T10:37:55;99824.56;;;19.20;43.11
4570;BME280;2297;51.442;6.996;2023-09-19T10:40:24;99832.31;;;19.24;42.96
4570;BME280;2297;51.442;6.996;2023-09-19T10:43:00;99818.38;;;19.19;42.78
4570;BME280;2297;51.442;6.996;2023-09-19T10:45:28;99830.97;;;19.59;41.80
4570;BME280;2297;51.442;6.996;2023-09-19T10:47:57;99830.09;;;19.31;41.91
4570;BME280;2297;51.442;6.996;2023-09-19T10:50:23;99814.25;;;19.14;42.96
4570;BME280;2297;51.442;6.996;2023-09-19T10:52:53;99820.91;;;19.35;41.58
4570;BME280;2297;51.442;6.996;2023-09-19T10:55:27;99818.50;;;19.85;40.84
4570;BME280;2297;51.442;6.996;2023-09-19T10:57:55;99814.34;;;19.54;41.04
4570;BME280;2297;51.442;6.996;2023-09-19T11:00:23;99800.66;;;19.71;40.53
4570;BME280;2297;51.442;6.996;2023-09-19T11:06:03;99809.19;;;19.51;41.02
4570;BME280;2297;51.442;6.996;2023-09-19T11:08:54;99803.47;;;19.70;40.77
4570;BME280;2297;51.442;6.996;2023-09-19T11:11:44;99811.38;;;19.99;40.51
4570;BME280;2297;51.442;6.996;2023-09-19T11:14:38;99812.06;;;19.48;40.98
4570;BME280;2297;51.442;6.996;2023-09-19T11:20:21;99818.88;;;19.66;41.33
4570;BME280;2297;51.442;6.996;2023-09-19T11:23:23;99803.13;;;20.40;40.27
4570;BME280;2297;51.442;6.996;2023-09-19T11:25:52;99816.44;;;19.89;39.91
4570;BME280;2297;51.442;6.996;2023-09-19T11:28:30;99814.78;;;19.60;40.88
4570;BME280;2297;51.442;6.996;2023-09-19T11:30:56;99821.56;;;20.06;40.03
4570;BME280;2297;51.442;6.996;2023-09-19T11:33:25;99830.38;;;20.34;39.54
4570;BME280;2297;51.442;6.996;2023-09-19T11:35:59;99816.66;;;20.52;39.24
4570;BME280;2297;51.442;6.996;2023-09-19T11:39:01;99804.88;;;20.67;38.65
4570;BME280;2297;51.442;6.996;2023-09-19T11:41:38;99809.09;;;19.92;39.89
4570;BME280;2297;51.442;6.996;2023-09-19T11:44:33;99823.91;;;19.98;39.61
4570;BME280;2297;51.442;6.996;2023-09-19T11:47:04;99803.88;;;20.17;39.45
4570;BME280;2297;51.442;6.996;2023-09-19T11:49:32;99823.97;;;20.37;39.66
4570;BME280;2297;51.442;6.996;2023-09-19T11:52:00;99820.06;;;20.54;39.58
4570;BME280;2297;51.442;6.996;2023-09-19T11:54:32;99814.47;;;20.83;38.40
4570;BME280;2297;51.442;6.996;2023-09-19T11:56:59;99819.75;;;21.21;37.56
4570;BME280;2297;51.442;6.996;2023-09-19T11:59:27;99805.72;;;20.81;37.83
4570;BME280;2297;51.442;6.996;2023-09-19T12:01:55;99799.72;;;20.64;38.50
4570;BME280;2297;51.442;6.996;2023-09-19T12:04:37;99798.34;;;21.33;37.74
4570;BME280;2297;51.442;6.996;2023-09-19T12:07:06;99808.75;;;21.37;37.00
4570;BME280;2297;51.442;6.996;2023-09-19T12:09:39;99808.44;;;20.92;37.22
4570;BME280;2297;51.442;6.996;2023-09-19T12:12:09;99793.97;;;21.19;36.79
4570;BME280;2297;51.442;6.996;2023-09-19T12:14:38;99786.44;;;21.00;37.26
4570;BME280;2297;51.442;6.996;2023-09-19T12:17:07;99786.72;;;20.19;37.42
4570;BME280;2297;51.442;6.996;2023-09-19T12:19:34;99784.56;;;20.76;37.00
4570;BME280;2297;51.442;6.996;2023-09-19T12:22:01;99780.38;;;20.59;37.63
4570;BME280;2297;51.442;6.996;2023-09-19T12:24:30;99806.78;;;20.65;37.14
4570;BME280;2297;51.442;6.996;2023-09-19T12:27:03;99778.25;;;20.64;37.10
4570;BME280;2297;51.442;6.996;2023-09-19T12:29:42;99796.47;;;20.72;36.52
4570;BME280;2297;51.442;6.996;2023-09-19T12:32:08;99798.63;;;20.80;36.05
4570;BME280;2297;51.442;6.996;2023-09-19T12:34:36;99784.31;;;20.92;35.73
4570;BME280;2297;51.442;6.996;2023-09-19T12:37:09;99790.28;;;20.71;35.88
4570;BME280;2297;51.442;6.996;2023-09-19T12:39:42;99760.63;;;20.86;35.68
4570;BME280;2297;51.442;6.996;2023-09-19T12:42:11;99755.75;;;20.91;35.48
4570;BME280;2297;51.442;6.996;2023-09-19T12:44:41;99753.34;;;21.36;35.10
4570;BME280;2297;51.442;6.996;2023-09-19T12:47:10;99753.06;;;21.52;34.73
4570;BME280;2297;51.442;6.996;2023-09-19T12:49:36;99767.09;;;20.70;35.24
4570;BME280;2297;51.442;6.996;2023-09-19T12:52:03;99761.28;;;21.14;34.69
4570;BME280;2297;51.442;6.996;2023-09-19T12:54:38;99748.53;;;21.53;34.33
4570;BME280;2297;51.442;6.996;2023-09-19T12:57:05;99755.44;;;21.80;34.38
4570;BME280;2297;51.442;6.996;2023-09-19T12:59:33;99760.47;;;21.49;34.59
4570;BME280;2297;51.442;6.996;2023-09-19T13:02:04;99762.44;;;21.93;33.95
4570;BME280;2297;51.442;6.996;2023-09-19T13:04:32;99754.91;;;21.63;34.21
4570;BME280;2297;51.442;6.996;2023-09-19T13:07:00;99746.16;;;21.84;33.04
4570;BME280;2297;51.442;6.996;2023-09-19T13:09:27;99754.72;;;21.77;33.50
4570;BME280;2297;51.442;6.996;2023-09-19T13:12:00;99749.72;;;21.84;33.62
4570;BME280;2297;51.442;6.996;2023-09-19T13:14:28;99745.72;;;21.06;34.05
4570;BME280;2297;51.442;6.996;2023-09-19T13:17:00;99759.06;;;21.19;34.56
4570;BME280;2297;51.442;6.996;2023-09-19T13:19:40;99766.47;;;21.52;34.76
4570;BME280;2297;51.442;6.996;2023-09-19T13:22:37;99771.31;;;21.23;34.93
4570;BME280;2297;51.442;6.996;2023-09-19T13:25:05;99778.00;;;20.80;34.92
4570;BME280;2297;51.442;6.996;2023-09-19T13:27:33;99766.72;;;21.12;34.58
4570;BME280;2297;51.442;6.996;2023-09-19T13:30:00;99774.00;;;21.71;34.09
4570;BME280;2297;51.442;6.996;2023-09-19T13:32:28;99777.13;;;21.65;34.17
4570;BME280;2297;51.442;6.996;2023-09-19T13:34:54;99763.00;;;21.74;34.68
4570;BME280;2297;51.442;6.996;2023-09-19T13:37:21;99763.78;;;21.52;34.27
4570;BME280;2297;51.442;6.996;2023-09-19T13:39:47;99771.28;;;21.60;34.12
4570;BME280;2297;51.442;6.996;2023-09-19T13:42:14;99757.91;;;21.47;34.65
4570;BME280;2297;51.442;6.996;2023-09-19T13:44:42;99754.66;;;21.55;34.39
4570;BME280;2297;51.442;6.996;2023-09-19T13:47:08;99786.75;;;21.92;34.30